sensor_id;sensor_type;location;lat;lon;timestamp;P1;durP1;ratioP1;P2;durP2;ratioP2
80908;SDS011;70358;56.958;24.126;2023-11-21T00:00:09;7.70;;;4.22;;
80908;SDS011;70358;56.958;24.126;2023-11-21T00:02:37;5.90;;;3.83;;
80908;SDS011;70358;56.958;24.126;2023-11-21T00:05:05;5.03;;;3.45;;
80908;SDS011;70358;56.958;24.126;2023-11-21T00:07:35;5.68;;;3.80;;
80908;SDS011;70358;56.958;24.126;2023-11-21T00:10:03;6.75;;;3.50;;
80908;SDS011;70358;56.958;24.126;2023-11-21T00:12:30;5.97;;;3.50;;
80908;SDS011;70358;56.958;24.126;2023-11-21T00:14:59;5.85;;;3.35;;
80908;SDS011;70358;56.958;24.126;2023-11-21T00:17:25;5.63;;;3.50;;
80908;SDS011;70358;56.958;24.126;2023-11-21T00:19:50;5.50;;;3.30;;
80908;SDS011;70358;56.958;24.126;2023-11-21T00:22:18;5.72;;;3.40;;
80908;SDS011;70358;56.958;24.126;2023-11-21T00:24:47;6.47;;;3.70;;
80908;SDS011;70358;56.958;24.126;2023-11-21T00:27:13;5.80;;;3.60;;
80908;SDS011;70358;56.958;24.126;2023-11-21T00:29:39;5.55;;;3.30;;
80908;SDS011;70358;56.958;24.126;2023-11-21T00:32:07;5.70;;;3.60;;
80908;SDS011;70358;56.958;24.126;2023-11-21T00:34:34;7.30;;;4.30;;
80908;SDS011;70358;56.958;24.126;2023-11-21T00:36:59;6.18;;;3.35;;
80908;SDS011;70358;56.958;24.126;2023-11-21T00:39:25;4.65;;;3.35;;
80908;SDS011;70358;56.958;24.126;2023-11-21T00:41:51;7.90;;;3.50;;
80908;SDS011;70358;56.958;24.126;2023-11-21T00:44:17;5.03;;;3.22;;
80908;SDS011;70358;56.958;24.126;2023-11-21T00:46:43;6.40;;;3.63;;
80908;SDS011;70358;56.958;24.126;2023-11-21T00:49:08;6.25;;;3.80;;
80908;SDS011;70358;56.958;24.126;2023-11-21T00:51:34;5.15;;;3.10;;
80908;SDS011;70358;56.958;24.126;2023-11-21T00:53:59;5.40;;;3.65;;
80908;SDS011;70358;56.958;24.126;2023-11-21T00:56:25;6.78;;;3.65;;
80908;SDS011;70358;56.958;24.126;2023-11-21T00:58:53;5.30;;;3.55;;
80908;SDS011;70358;56.958;24.126;2023-11-21T01:01:19;6.85;;;3.85;;
80908;SDS011;70358;56.958;24.126;2023-11-21T01:03:45;5.22;;;3.25;;
80908;SDS011;70358;56.958;24.126;2023-11-21T01:06:11;7.07;;;4.20;;
80908;SDS011;70358;56.958;24.126;2023-11-21T01:08:37;5.65;;;3.53;;
80908;SDS011;70358;56.958;24.126;2023-11-21T01:11:02;6.22;;;3.90;;
80908;SDS011;70358;56.958;24.126;2023-11-21T01:13:31;5.88;;;3.30;;
80908;SDS011;70358;56.958;24.126;2023-11-21T01:15:56;6.55;;;3.65;;
80908;SDS011;70358;56.958;24.126;2023-11-21T01:18:22;5.75;;;3.60;;
80908;SDS011;70358;56.958;24.126;2023-11-21T01:20:50;6.05;;;3.45;;
80908;SDS011;70358;56.958;24.126;2023-11-21T01:23:18;6.25;;;3.13;;
80908;SDS011;70358;56.958;24.126;2023-11-21T01:25:43;5.78;;;3.45;;
80908;SDS011;70358;56.958;24.126;2023-11-21T01:28:09;6.50;;;3.10;;
80908;SDS011;70358;56.958;24.126;2023-11-21T01:30:34;6.40;;;3.38;;
80908;SDS011;70358;56.958;24.126;2023-11-21T01:33:00;5.93;;;3.50;;
80908;SDS011;70358;56.958;24.126;2023-11-21T01:35:26;6.50;;;3.78;;
80908;SDS011;70358;56.958;24.126;2023-11-21T01:37:51;5.85;;;3.92;;
80908;SDS011;70358;56.958;24.126;2023-11-21T01:40:17;6.40;;;3.45;;
80908;SDS011;70358;56.958;24.126;2023-11-21T01:42:42;5.28;;;3.47;;
80908;SDS011;70358;56.958;24.126;2023-11-21T01:45:09;5.60;;;3.33;;
80908;SDS011;70358;56.958;24.126;2023-11-21T01:47:35;6.32;;;3.78;;
80908;SDS011;70358;56.958;24.126;2023-11-21T01:50:02;7.13;;;3.47;;
80908;SDS011;70358;56.958;24.126;2023-11-21T01:52:29;5.72;;;3.28;;
80908;SDS011;70358;56.958;24.126;2023-11-21T01:54:55;5.65;;;3.55;;
80908;SDS011;70358;56.958;24.126;2023-11-21T01:57:20;5.10;;;3.03;;
80908;SDS011;70358;56.958;24.126;2023-11-21T01:59:46;4.30;;;2.83;;
80908;SDS011;70358;56.958;24.126;2023-11-21T02:02:13;5.05;;;3.30;;
80908;SDS011;70358;56.958;24.126;2023-11-21T02:04:38;5.95;;;3.83;;
80908;SDS011;70358;56.958;24.126;2023-11-21T02:07:04;6.90;;;3.70;;
80908;SDS011;70358;56.958;24.126;2023-11-21T02:09:33;5.38;;;3.10;;
80908;SDS011;70358;56.958;24.126;2023-11-21T02:11:59;6.40;;;3.42;;
80908;SDS011;70358;56.958;24.126;2023-11-21T02:14:25;6.28;;;3.60;;
80908;SDS011;70358;56.958;24.126;2023-11-21T02:16:54;5.65;;;3.35;;
80908;SDS011;70358;56.958;24.126;2023-11-21T02:19:21;6.80;;;3.58;;
80908;SDS011;70358;56.958;24.126;2023-11-21T02:21:55;5.75;;;3.33;;
80908;SDS011;70358;56.958;24.126;2023-11-21T02:24:23;5.75;;;2.90;;
80908;SDS011;70358;56.958;24.126;2023-11-21T02:26:49;5.07;;;3.45;;
80908;SDS011;70358;56.958;24.126;2023-11-21T02:29:18;5.22;;;3.28;;
80908;SDS011;70358;56.958;24.126;2023-11-21T02:31:47;5.85;;;3.40;;
80908;SDS011;70358;56.958;24.126;2023-11-21T02:34:14;5.35;;;2.95;;
80908;SDS011;70358;56.958;24.126;2023-11-21T02:36:40;5.00;;;3.30;;
80908;SDS011;70358;56.958;24.126;2023-11-21T02:39:07;6.13;;;3.67;;
80908;SDS011;70358;56.958;24.126;2023-11-21T02:41:33;5.35;;;3.50;;
80908;SDS011;70358;56.958;24.126;2023-11-21T02:43:59;6.72;;;3.33;;
80908;SDS011;70358;56.958;24.126;2023-11-21T02:46:25;5.38;;;3.30;;
80908;SDS011;70358;56.958;24.126;2023-11-21T02:48:51;5.05;;;3.05;;
80908;SDS011;70358;56.958;24.126;2023-11-21T02:51:19;4.90;;;3.28;;
80908;SDS011;70358;56.958;24.126;2023-11-21T02:53:44;5.55;;;3.53;;
80908;SDS011;70358;56.958;24.126;2023-11-21T02:56:11;6.07;;;3.38;;
80908;SDS011;70358;56.958;24.126;2023-11-21T02:58:37;5.35;;;3.33;;
80908;SDS011;70358;56.958;24.126;2023-11-21T03:01:03;6.18;;;3.55;;
80908;SDS011;70358;56.958;24.126;2023-11-21T03:03:31;4.63;;;2.90;;
80908;SDS011;70358;56.958;24.126;2023-11-21T03:05:56;5.00;;;3.05;;
80908;SDS011;70358;56.958;24.126;2023-11-21T03:08:22;5.00;;;3.08;;
80908;SDS011;70358;56.958;24.126;2023-11-21T03:10:47;6.03;;;3.10;;
80908;SDS011;70358;56.958;24.126;2023-11-21T03:13:12;5.78;;;3.17;;
80908;SDS011;70358;56.958;24.126;2023-11-21T03:15:38;5.60;;;3.00;;
80908;SDS011;70358;56.958;24.126;2023-11-21T03:18:04;5.40;;;3.55;;
80908;SDS011;70358;56.958;24.126;2023-11-21T03:20:30;5.43;;;3.20;;
80908;SDS011;70358;56.958;24.126;2023-11-21T03:22:55;6.13;;;3.10;;
80908;SDS011;70358;56.958;24.126;2023-11-21T03:25:21;5.30;;;3.47;;
80908;SDS011;70358;56.958;24.126;2023-11-21T03:27:48;5.55;;;2.92;;
80908;SDS011;70358;56.958;24.126;2023-11-21T03:30:14;5.35;;;3.42;;
80908;SDS011;70358;56.958;24.126;2023-11-21T03:32:40;4.72;;;3.13;;
80908;SDS011;70358;56.958;24.126;2023-11-21T03:35:05;4.88;;;2.88;;
80908;SDS011;70358;56.958;24.126;2023-11-21T03:37:31;5.47;;;2.70;;
80908;SDS011;70358;56.958;24.126;2023-11-21T03:39:57;5.07;;;3.40;;
80908;SDS011;70358;56.958;24.126;2023-11-21T03:42:22;5.32;;;3.25;;
80908;SDS011;70358;56.958;24.126;2023-11-21T03:44:48;4.90;;;2.80;;
80908;SDS011;70358;56.958;24.126;2023-11-21T03:47:13;7.35;;;3.25;;
80908;SDS011;70358;56.958;24.126;2023-11-21T03:49:38;5.32;;;3.40;;
80908;SDS011;70358;56.958;24.126;2023-11-21T03:52:04;4.57;;;2.97;;
80908;SDS011;70358;56.958;24.126;2023-11-21T03:54:30;5.10;;;3.00;;
80908;SDS011;70358;56.958;24.126;2023-11-21T03:56:55;4.88;;;3.20;;
80908;SDS011;70358;56.958;24.126;2023-11-21T03:59:21;5.32;;;3.30;;
80908;SDS011;70358;56.958;24.126;2023-11-21T04:01:49;4.78;;;2.92;;
80908;SDS011;70358;56.958;24.126;2023-11-21T04:04:15;4.93;;;3.13;;
80908;SDS011;70358;56.958;24.126;2023-11-21T04:06:41;5.00;;;2.83;;
80908;SDS011;70358;56.958;24.126;2023-11-21T04:09:06;4.72;;;2.67;;
80908;SDS011;70358;56.958;24.126;2023-11-21T04:11:32;4.30;;;2.88;;
80908;SDS011;70358;56.958;24.126;2023-11-21T04:13:57;4.72;;;2.97;;
80908;SDS011;70358;56.958;24.126;2023-11-21T04:16:23;5.32;;;3.03;;
80908;SDS011;70358;56.958;24.126;2023-11-21T04:18:49;4.90;;;3.20;;
80908;SDS011;70358;56.958;24.126;2023-11-21T04:21:14;5.15;;;2.90;;
80908;SDS011;70358;56.958;24.126;2023-11-21T04:23:40;4.25;;;2.60;;
80908;SDS011;70358;56.958;24.126;2023-11-21T04:26:05;4.90;;;2.97;;
80908;SDS011;70358;56.958;24.126;2023-11-21T04:28:31;4.70;;;3.17;;
80908;SDS011;70358;56.958;24.126;2023-11-21T04:30:57;8.15;;;3.63;;
80908;SDS011;70358;56.958;24.126;2023-11-21T04:33:22;6.38;;;3.13;;
80908;SDS011;70358;56.958;24.126;2023-11-21T04:35:48;5.32;;;3.40;;
80908;SDS011;70358;56.958;24.126;2023-11-21T04:38:13;4.50;;;3.10;;
80908;SDS011;70358;56.958;24.126;2023-11-21T04:40:39;4.72;;;2.90;;
80908;SDS011;70358;56.958;24.126;2023-11-21T04:43:04;5.25;;;2.92;;
80908;SDS011;70358;56.958;24.126;2023-11-21T04:45:30;4.70;;;2.80;;
80908;SDS011;70358;56.958;24.126;2023-11-21T04:47:56;4.90;;;3.20;;
80908;SDS011;70358;56.958;24.126;2023-11-21T04:50:21;5.30;;;3.40;;
80908;SDS011;70358;56.958;24.126;2023-11-21T04:52:47;4.97;;;3.30;;
80908;SDS011;70358;56.958;24.126;2023-11-21T04:55:13;5.18;;;2.92;;
80908;SDS011;70358;56.958;24.126;2023-11-21T04:57:38;4.05;;;2.70;;
80908;SDS011;70358;56.958;24.126;2023-11-21T05:00:06;4.75;;;2.80;;
80908;SDS011;70358;56.958;24.126;2023-11-21T05:02:33;3.80;;;2.53;;
80908;SDS011;70358;56.958;24.126;2023-11-21T05:05:00;5.00;;;2.78;;
80908;SDS011;70358;56.958;24.126;2023-11-21T05:07:25;4.72;;;2.80;;
80908;SDS011;70358;56.958;24.126;2023-11-21T05:09:54;4.05;;;2.63;;
80908;SDS011;70358;56.958;24.126;2023-11-21T05:12:21;4.53;;;2.78;;
80908;SDS011;70358;56.958;24.126;2023-11-21T05:14:48;3.88;;;2.80;;
80908;SDS011;70358;56.958;24.126;2023-11-21T05:17:14;4.15;;;2.78;;
80908;SDS011;70358;56.958;24.126;2023-11-21T05:19:39;4.55;;;2.85;;
80908;SDS011;70358;56.958;24.126;2023-11-21T05:22:05;4.43;;;2.90;;
80908;SDS011;70358;56.958;24.126;2023-11-21T05:24:31;4.88;;;3.08;;
80908;SDS011;70358;56.958;24.126;2023-11-21T05:26:56;4.57;;;2.60;;
80908;SDS011;70358;56.958;24.126;2023-11-21T05:29:22;6.65;;;3.40;;
80908;SDS011;70358;56.958;24.126;2023-11-21T05:31:48;4.50;;;2.72;;
80908;SDS011;70358;56.958;24.126;2023-11-21T05:34:13;4.28;;;2.60;;
80908;SDS011;70358;56.958;24.126;2023-11-21T05:36:40;3.88;;;2.60;;
80908;SDS011;70358;56.958;24.126;2023-11-21T05:39:06;5.07;;;2.92;;
80908;SDS011;70358;56.958;24.126;2023-11-21T05:41:31;3.78;;;2.60;;
80908;SDS011;70358;56.958;24.126;2023-11-21T05:43:57;5.40;;;3.20;;
80908;SDS011;70358;56.958;24.126;2023-11-21T05:46:22;4.72;;;2.67;;
80908;SDS011;70358;56.958;24.126;2023-11-21T05:48:47;3.95;;;2.50;;
80908;SDS011;70358;56.958;24.126;2023-11-21T05:51:22;5.28;;;3.28;;
80908;SDS011;70358;56.958;24.126;2023-11-21T05:53:49;5.82;;;2.80;;
80908;SDS011;70358;56.958;24.126;2023-11-21T05:56:15;5.25;;;3.05;;
80908;SDS011;70358;56.958;24.126;2023-11-21T05:58:41;4.50;;;2.60;;
80908;SDS011;70358;56.958;24.126;2023-11-21T06:01:06;5.10;;;2.80;;
80908;SDS011;70358;56.958;24.126;2023-11-21T06:03:34;4.50;;;2.90;;
80908;SDS011;70358;56.958;24.126;2023-11-21T06:05:59;4.90;;;2.67;;
80908;SDS011;70358;56.958;24.126;2023-11-21T06:08:25;5.80;;;2.72;;
80908;SDS011;70358;56.958;24.126;2023-11-21T06:10:50;4.25;;;2.78;;
80908;SDS011;70358;56.958;24.126;2023-11-21T06:13:16;6.07;;;2.97;;
80908;SDS011;70358;56.958;24.126;2023-11-21T06:15:43;4.72;;;2.80;;
80908;SDS011;70358;56.958;24.126;2023-11-21T06:18:08;6.78;;;2.97;;
80908;SDS011;70358;56.958;24.126;2023-11-21T06:20:36;6.78;;;3.25;;
80908;SDS011;70358;56.958;24.126;2023-11-21T06:23:02;5.18;;;3.22;;
80908;SDS011;70358;56.958;24.126;2023-11-21T06:25:28;4.75;;;2.90;;
80908;SDS011;70358;56.958;24.126;2023-11-21T06:27:54;4.90;;;3.20;;
80908;SDS011;70358;56.958;24.126;2023-11-21T06:30:20;4.05;;;3.05;;
80908;SDS011;70358;56.958;24.126;2023-11-21T06:32:46;5.53;;;3.10;;
80908;SDS011;70358;56.958;24.126;2023-11-21T06:35:12;4.20;;;2.65;;
80908;SDS011;70358;56.958;24.126;2023-11-21T06:37:38;5.45;;;3.40;;
80908;SDS011;70358;56.958;24.126;2023-11-21T06:40:04;6.68;;;3.33;;
80908;SDS011;70358;56.958;24.126;2023-11-21T06:42:30;5.40;;;3.25;;
80908;SDS011;70358;56.958;24.126;2023-11-21T06:44:56;6.43;;;3.25;;
80908;SDS011;70358;56.958;24.126;2023-11-21T06:47:22;4.45;;;3.00;;
80908;SDS011;70358;56.958;24.126;2023-11-21T06:49:51;6.57;;;3.05;;
80908;SDS011;70358;56.958;24.126;2023-11-21T06:52:17;6.65;;;3.38;;
80908;SDS011;70358;56.958;24.126;2023-11-21T06:54:43;4.65;;;3.00;;
80908;SDS011;70358;56.958;24.126;2023-11-21T06:57:10;4.88;;;2.90;;
80908;SDS011;70358;56.958;24.126;2023-11-21T06:59:36;6.93;;;3.72;;
80908;SDS011;70358;56.958;24.126;2023-11-21T07:02:02;5.43;;;3.20;;
80908;SDS011;70358;56.958;24.126;2023-11-21T07:04:27;6.68;;;3.17;;
80908;SDS011;70358;56.958;24.126;2023-11-21T07:06:53;6.90;;;2.85;;
80908;SDS011;70358;56.958;24.126;2023-11-21T07:09:19;4.93;;;3.15;;
80908;SDS011;70358;56.958;24.126;2023-11-21T07:11:47;5.07;;;2.92;;
80908;SDS011;70358;56.958;24.126;2023-11-21T07:14:13;9.02;;;4.00;;
80908;SDS011;70358;56.958;24.126;2023-11-21T07:16:39;5.85;;;3.33;;
80908;SDS011;70358;56.958;24.126;2023-11-21T07:19:08;7.18;;;3.50;;
80908;SDS011;70358;56.958;24.126;2023-11-21T07:21:34;8.55;;;3.05;;
80908;SDS011;70358;56.958;24.126;2023-11-21T07:24:01;14.13;;;4.78;;
80908;SDS011;70358;56.958;24.126;2023-11-21T07:26:31;10.93;;;4.20;;
80908;SDS011;70358;56.958;24.126;2023-11-21T07:28:56;11.88;;;4.32;;
80908;SDS011;70358;56.958;24.126;2023-11-21T07:31:22;11.20;;;4.65;;
80908;SDS011;70358;56.958;24.126;2023-11-21T07:33:49;14.55;;;4.28;;
80908;SDS011;70358;56.958;24.126;2023-11-21T07:36:15;8.48;;;4.55;;
80908;SDS011;70358;56.958;24.126;2023-11-21T07:38:43;10.63;;;4.70;;
80908;SDS011;70358;56.958;24.126;2023-11-21T07:41:09;12.52;;;4.65;;
80908;SDS011;70358;56.958;24.126;2023-11-21T07:43:35;13.10;;;4.47;;
80908;SDS011;70358;56.958;24.126;2023-11-21T07:46:01;15.57;;;4.57;;
80908;SDS011;70358;56.958;24.126;2023-11-21T07:48:30;11.50;;;5.28;;
80908;SDS011;70358;56.958;24.126;2023-11-21T07:50:56;12.07;;;4.40;;
80908;SDS011;70358;56.958;24.126;2023-11-21T07:53:23;10.45;;;4.95;;
80908;SDS011;70358;56.958;24.126;2023-11-21T07:58:45;9.98;;;4.63;;
80908;SDS011;70358;56.958;24.126;2023-11-21T08:01:11;9.50;;;4.93;;
80908;SDS011;70358;56.958;24.126;2023-11-21T08:03:37;10.43;;;4.40;;
80908;SDS011;70358;56.958;24.126;2023-11-21T08:06:04;8.73;;;4.60;;
80908;SDS011;70358;56.958;24.126;2023-11-21T08:08:30;12.20;;;4.75;;
80908;SDS011;70358;56.958;24.126;2023-11-21T08:10:57;13.55;;;4.88;;
80908;SDS011;70358;56.958;24.126;2023-11-21T08:13:26;10.15;;;4.65;;
80908;SDS011;70358;56.958;24.126;2023-11-21T08:16:00;12.90;;;4.30;;
80908;SDS011;70358;56.958;24.126;2023-11-21T08:18:30;12.82;;;4.75;;
80908;SDS011;70358;56.958;24.126;2023-11-21T08:20:56;12.80;;;5.60;;
80908;SDS011;70358;56.958;24.126;2023-11-21T08:23:25;15.27;;;5.07;;
80908;SDS011;70358;56.958;24.126;2023-11-21T08:25:56;13.93;;;4.65;;
80908;SDS011;70358;56.958;24.126;2023-11-21T08:28:28;30.25;;;5.40;;
80908;SDS011;70358;56.958;24.126;2023-11-21T08:30:54;13.88;;;4.95;;
80908;SDS011;70358;56.958;24.126;2023-11-21T08:33:19;13.30;;;5.25;;
80908;SDS011;70358;56.958;24.126;2023-11-21T08:35:45;15.40;;;5.35;;
80908;SDS011;70358;56.958;24.126;2023-11-21T08:38:11;14.50;;;5.13;;
80908;SDS011;70358;56.958;24.126;2023-11-21T08:40:37;17.77;;;5.13;;
80908;SDS011;70358;56.958;24.126;2023-11-21T08:43:05;13.70;;;5.15;;
80908;SDS011;70358;56.958;24.126;2023-11-21T08:48:01;19.48;;;5.15;;
80908;SDS011;70358;56.958;24.126;2023-11-21T08:50:27;17.35;;;5.43;;
80908;SDS011;70358;56.958;24.126;2023-11-21T08:52:53;14.02;;;5.00;;
80908;SDS011;70358;56.958;24.126;2023-11-21T08:55:18;9.93;;;4.88;;
80908;SDS011;70358;56.958;24.126;2023-11-21T08:57:45;11.18;;;5.78;;
80908;SDS011;70358;56.958;24.126;2023-11-21T09:00:13;13.98;;;5.20;;
80908;SDS011;70358;56.958;24.126;2023-11-21T09:02:42;13.80;;;6.03;;
80908;SDS011;70358;56.958;24.126;2023-11-21T09:05:08;15.38;;;5.30;;
80908;SDS011;70358;56.958;24.126;2023-11-21T09:07:34;18.77;;;6.07;;
80908;SDS011;70358;56.958;24.126;2023-11-21T09:10:04;17.70;;;6.00;;
80908;SDS011;70358;56.958;24.126;2023-11-21T09:12:36;10.05;;;4.95;;
80908;SDS011;70358;56.958;24.126;2023-11-21T09:15:05;12.85;;;5.28;;
80908;SDS011;70358;56.958;24.126;2023-11-21T09:17:32;14.02;;;5.00;;
80908;SDS011;70358;56.958;24.126;2023-11-21T09:19:59;13.82;;;5.80;;
80908;SDS011;70358;56.958;24.126;2023-11-21T09:22:28;20.30;;;5.78;;
80908;SDS011;70358;56.958;24.126;2023-11-21T09:24:54;13.40;;;5.32;;
80908;SDS011;70358;56.958;24.126;2023-11-21T09:27:21;14.27;;;5.00;;
80908;SDS011;70358;56.958;24.126;2023-11-21T09:29:46;20.38;;;6.32;;
80908;SDS011;70358;56.958;24.126;2023-11-21T09:32:12;12.52;;;5.10;;
80908;SDS011;70358;56.958;24.126;2023-11-21T09:34:42;15.93;;;6.40;;
80908;SDS011;70358;56.958;24.126;2023-11-21T09:37:11;11.55;;;4.90;;
80908;SDS011;70358;56.958;24.126;2023-11-21T09:39:36;13.68;;;5.70;;
80908;SDS011;70358;56.958;24.126;2023-11-21T09:42:12;11.07;;;5.47;;
80908;SDS011;70358;56.958;24.126;2023-11-21T09:49:51;13.10;;;5.35;;
80908;SDS011;70358;56.958;24.126;2023-11-21T09:52:24;18.77;;;5.22;;
80908;SDS011;70358;56.958;24.126;2023-11-21T09:54:51;25.92;;;5.53;;
80908;SDS011;70358;56.958;24.126;2023-11-21T09:57:24;15.90;;;5.57;;
80908;SDS011;70358;56.958;24.126;2023-11-21T09:59:52;12.73;;;5.10;;
80908;SDS011;70358;56.958;24.126;2023-11-21T10:02:27;21.20;;;6.28;;
80908;SDS011;70358;56.958;24.126;2023-11-21T10:04:58;11.43;;;5.82;;
80908;SDS011;70358;56.958;24.126;2023-11-21T10:07:25;11.25;;;4.75;;
80908;SDS011;70358;56.958;24.126;2023-11-21T10:09:51;12.00;;;5.43;;
80908;SDS011;70358;56.958;24.126;2023-11-21T10:12:18;17.52;;;5.50;;
80908;SDS011;70358;56.958;24.126;2023-11-21T10:14:46;13.88;;;5.47;;
80908;SDS011;70358;56.958;24.126;2023-11-21T10:17:13;11.85;;;5.45;;
80908;SDS011;70358;56.958;24.126;2023-11-21T10:19:41;15.15;;;5.63;;
80908;SDS011;70358;56.958;24.126;2023-11-21T10:22:07;13.30;;;5.88;;
80908;SDS011;70358;56.958;24.126;2023-11-21T10:24:33;11.98;;;4.95;;
80908;SDS011;70358;56.958;24.126;2023-11-21T10:26:59;16.17;;;6.10;;
80908;SDS011;70358;56.958;24.126;2023-11-21T10:29:28;14.50;;;5.82;;
80908;SDS011;70358;56.958;24.126;2023-11-21T10:31:55;17.65;;;5.40;;
80908;SDS011;70358;56.958;24.126;2023-11-21T10:34:24;12.70;;;5.28;;
80908;SDS011;70358;56.958;24.126;2023-11-21T10:36:49;15.95;;;6.03;;
80908;SDS011;70358;56.958;24.126;2023-11-21T10:39:18;15.15;;;5.80;;
80908;SDS011;70358;56.958;24.126;2023-11-21T10:41:49;13.38;;;5.78;;
80908;SDS011;70358;56.958;24.126;2023-11-21T10:44:16;14.85;;;7.10;;
80908;SDS011;70358;56.958;24.126;2023-11-21T10:46:49;17.23;;;5.68;;
80908;SDS011;70358;56.958;24.126;2023-11-21T10:49:17;19.55;;;5.93;;
80908;SDS011;70358;56.958;24.126;2023-11-21T10:51:43;11.85;;;4.97;;
80908;SDS011;70358;56.958;24.126;2023-11-21T10:54:09;17.95;;;5.47;;
80908;SDS011;70358;56.958;24.126;2023-11-21T10:56:34;18.13;;;5.75;;
80908;SDS011;70358;56.958;24.126;2023-11-21T10:59:05;16.80;;;6.03;;
80908;SDS011;70358;56.958;24.126;2023-11-21T11:01:34;15.43;;;5.45;;
80908;SDS011;70358;56.958;24.126;2023-11-21T11:03:59;17.17;;;6.50;;
80908;SDS011;70358;56.958;24.126;2023-11-21T11:06:26;15.18;;;5.38;;
80908;SDS011;70358;56.958;24.126;2023-11-21T11:08:52;13.48;;;5.25;;
80908;SDS011;70358;56.958;24.126;2023-11-21T11:11:18;14.32;;;6.30;;
80908;SDS011;70358;56.958;24.126;2023-11-21T11:13:54;17.42;;;6.22;;
80908;SDS011;70358;56.958;24.126;2023-11-21T11:16:20;15.80;;;5.82;;
80908;SDS011;70358;56.958;24.126;2023-11-21T11:18:49;14.35;;;6.15;;
80908;SDS011;70358;56.958;24.126;2023-11-21T11:26:50;15.95;;;5.95;;
80908;SDS011;70358;56.958;24.126;2023-11-21T11:29:55;13.35;;;5.55;;
80908;SDS011;70358;56.958;24.126;2023-11-21T11:32:45;15.00;;;6.03;;
80908;SDS011;70358;56.958;24.126;2023-11-21T11:38:13;27.38;;;7.70;;
80908;SDS011;70358;56.958;24.126;2023-11-21T11:40:40;13.70;;;5.45;;
80908;SDS011;70358;56.958;24.126;2023-11-21T11:43:07;18.27;;;5.95;;
80908;SDS011;70358;56.958;24.126;2023-11-21T11:45:33;14.90;;;5.93;;
80908;SDS011;70358;56.958;24.126;2023-11-21T11:48:02;18.77;;;5.88;;
80908;SDS011;70358;56.958;24.126;2023-11-21T11:50:28;17.60;;;5.95;;
80908;SDS011;70358;56.958;24.126;2023-11-21T11:52:55;17.00;;;5.53;;
80908;SDS011;70358;56.958;24.126;2023-11-21T11:55:24;20.17;;;5.60;;
80908;SDS011;70358;56.958;24.126;2023-11-21T11:57:51;22.42;;;6.32;;
80908;SDS011;70358;56.958;24.126;2023-11-21T12:00:18;17.88;;;6.32;;
80908;SDS011;70358;56.958;24.126;2023-11-21T12:02:53;20.50;;;7.22;;
80908;SDS011;70358;56.958;24.126;2023-11-21T12:05:21;17.58;;;5.97;;
80908;SDS011;70358;56.958;24.126;2023-11-21T12:07:57;15.60;;;5.93;;
80908;SDS011;70358;56.958;24.126;2023-11-21T12:10:28;18.77;;;7.40;;
80908;SDS011;70358;56.958;24.126;2023-11-21T12:12:57;19.92;;;6.50;;
80908;SDS011;70358;56.958;24.126;2023-11-21T12:15:25;19.00;;;5.47;;
80908;SDS011;70358;56.958;24.126;2023-11-21T12:17:54;16.92;;;5.82;;
80908;SDS011;70358;56.958;24.126;2023-11-21T12:20:20;19.77;;;6.55;;
80908;SDS011;70358;56.958;24.126;2023-11-21T12:22:50;15.38;;;5.90;;
80908;SDS011;70358;56.958;24.126;2023-11-21T12:25:20;23.05;;;6.13;;
80908;SDS011;70358;56.958;24.126;2023-11-21T12:27:47;19.65;;;6.20;;
80908;SDS011;70358;56.958;24.126;2023-11-21T12:30:20;20.30;;;6.53;;
80908;SDS011;70358;56.958;24.126;2023-11-21T12:32:54;11.75;;;5.70;;
80908;SDS011;70358;56.958;24.126;2023-11-21T12:35:30;20.88;;;6.80;;
80908;SDS011;70358;56.958;24.126;2023-11-21T12:37:59;16.42;;;7.43;;
80908;SDS011;70358;56.958;24.126;2023-11-21T12:40:27;19.38;;;6.60;;
80908;SDS011;70358;56.958;24.126;2023-11-21T12:42:54;16.60;;;6.55;;
80908;SDS011;70358;56.958;24.126;2023-11-21T12:47:48;16.95;;;5.90;;
80908;SDS011;70358;56.958;24.126;2023-11-21T12:50:25;15.90;;;6.78;;
80908;SDS011;70358;56.958;24.126;2023-11-21T12:53:14;14.15;;;6.60;;
80908;SDS011;70358;56.958;24.126;2023-11-21T12:55:43;15.07;;;6.60;;
80908;SDS011;70358;56.958;24.126;2023-11-21T12:58:15;19.83;;;7.97;;
80908;SDS011;70358;56.958;24.126;2023-11-21T13:00:44;17.67;;;6.53;;
80908;SDS011;70358;56.958;24.126;2023-11-21T13:03:12;24.02;;;7.13;;
80908;SDS011;70358;56.958;24.126;2023-11-21T13:05:41;20.90;;;8.48;;
80908;SDS011;70358;56.958;24.126;2023-11-21T13:08:10;17.65;;;7.80;;
80908;SDS011;70358;56.958;24.126;2023-11-21T13:10:40;19.63;;;7.07;;
80908;SDS011;70358;56.958;24.126;2023-11-21T13:13:09;18.17;;;6.93;;
80908;SDS011;70358;56.958;24.126;2023-11-21T13:15:47;18.08;;;7.20;;
80908;SDS011;70358;56.958;24.126;2023-11-21T13:18:13;18.27;;;7.40;;
80908;SDS011;70358;56.958;24.126;2023-11-21T13:20:39;17.85;;;6.70;;
80908;SDS011;70358;56.958;24.126;2023-11-21T13:23:08;27.88;;;9.32;;
80908;SDS011;70358;56.958;24.126;2023-11-21T13:25:37;22.17;;;7.22;;
80908;SDS011;70358;56.958;24.126;2023-11-21T13:28:13;20.48;;;7.60;;
80908;SDS011;70358;56.958;24.126;2023-11-21T13:30:40;29.27;;;8.90;;
80908;SDS011;70358;56.958;24.126;2023-11-21T13:33:07;27.33;;;7.32;;
80908;SDS011;70358;56.958;24.126;2023-11-21T13:35:33;26.77;;;8.57;;
80908;SDS011;70358;56.958;24.126;2023-11-21T13:38:12;26.95;;;8.93;;
80908;SDS011;70358;56.958;24.126;2023-11-21T13:40:48;39.05;;;8.05;;
80908;SDS011;70358;56.958;24.126;2023-11-21T13:43:15;28.90;;;8.55;;
80908;SDS011;70358;56.958;24.126;2023-11-21T13:45:47;40.15;;;8.68;;
80908;SDS011;70358;56.958;24.126;2023-11-21T13:48:19;41.35;;;8.50;;
80908;SDS011;70358;56.958;24.126;2023-11-21T13:50:50;34.78;;;8.38;;
80908;SDS011;70358;56.958;24.126;2023-11-21T13:53:35;41.10;;;9.80;;
80908;SDS011;70358;56.958;24.126;2023-11-21T13:56:03;35.72;;;9.98;;
80908;SDS011;70358;56.958;24.126;2023-11-21T13:58:29;31.23;;;9.10;;
80908;SDS011;70358;56.958;24.126;2023-11-21T14:01:10;29.50;;;8.07;;
80908;SDS011;70358;56.958;24.126;2023-11-21T14:03:55;27.30;;;8.20;;
80908;SDS011;70358;56.958;24.126;2023-11-21T14:06:43;43.00;;;8.65;;
80908;SDS011;70358;56.958;24.126;2023-11-21T14:09:16;20.85;;;7.85;;
80908;SDS011;70358;56.958;24.126;2023-11-21T14:14:21;38.35;;;8.85;;
80908;SDS011;70358;56.958;24.126;2023-11-21T14:16:47;31.80;;;8.95;;
80908;SDS011;70358;56.958;24.126;2023-11-21T14:19:12;26.92;;;7.45;;
80908;SDS011;70358;56.958;24.126;2023-11-21T14:21:45;32.30;;;9.07;;
80908;SDS011;70358;56.958;24.126;2023-11-21T14:24:14;24.73;;;10.10;;
80908;SDS011;70358;56.958;24.126;2023-11-21T14:26:43;25.80;;;9.55;;
80908;SDS011;70358;56.958;24.126;2023-11-21T14:29:11;28.88;;;9.23;;
80908;SDS011;70358;56.958;24.126;2023-11-21T14:31:42;25.08;;;9.70;;
80908;SDS011;70358;56.958;24.126;2023-11-21T14:34:08;29.40;;;11.10;;
80908;SDS011;70358;56.958;24.126;2023-11-21T14:36:34;24.83;;;8.32;;
80908;SDS011;70358;56.958;24.126;2023-11-21T14:39:01;28.70;;;8.65;;
80908;SDS011;70358;56.958;24.126;2023-11-21T14:41:29;26.00;;;9.23;;
80908;SDS011;70358;56.958;24.126;2023-11-21T14:43:54;28.05;;;8.30;;
80908;SDS011;70358;56.958;24.126;2023-11-21T14:46:22;21.00;;;8.13;;
80908;SDS011;70358;56.958;24.126;2023-11-21T14:48:48;32.72;;;10.77;;
80908;SDS011;70358;56.958;24.126;2023-11-21T14:51:24;25.08;;;9.77;;
80908;SDS011;70358;56.958;24.126;2023-11-21T14:53:56;28.70;;;8.18;;